This demonstration page uses our WeatherBlox Daily Observations layout. Learn more.

39.29038, -76.61219

Hourly Observations for July 29, 2018

Temp ( °F °C ) Dew Point ( °F °C ) Humidity (%) Winds ( mph kmh ) Pressure ( in mb ) Visibility ( mi km ) Precip ( " mm )
12:54 am 00:54 undefined 78 25.6 62 16.7 58 58 undefined N/A N/A N/A 0 0
1:54 am 01:54 undefined 77 25 61 16.1 58 58 undefined N/A N/A N/A 0 0
2:54 am 02:54 undefined 76 24.4 61 16.1 60 60 undefined N/A N/A N/A 0 0
3:54 am 03:54 undefined 75 23.9 60 15.6 60 60 undefined N/A N/A N/A 0 0
4:54 am 04:54 undefined 75 23.9 59 15 58 58 undefined N/A N/A N/A 0 0
5:54 am 05:54 undefined 74 23.3 59 15 60 60 undefined N/A N/A N/A 0 0
6:54 am 06:54 undefined 73 22.8 60 15.6 64 64 undefined N/A N/A N/A 0 0
7:54 am 07:54 undefined 74 23.3 60 15.6 62 62 undefined N/A N/A N/A 0 0
8:54 am 08:54 undefined 76 24.4 60 15.6 58 58 undefined N/A N/A N/A 0 0
9:54 am 09:54 undefined 78 25.6 60 15.6 54 54 undefined N/A N/A N/A 0 0
10:54 am 10:54 undefined 80 26.7 59 15 49 49 undefined N/A N/A N/A 0 0
11:54 am 11:54 undefined 83 28.3 58 14.4 43 43 undefined N/A N/A N/A 0 0
12:54 pm 12:54 undefined 85 29.4 58 14.4 40 40 undefined N/A N/A N/A 0 0
1:54 pm 13:54 undefined 87 30.6 60 15.6 40 40 undefined N/A N/A N/A 0 0
2:54 pm 14:54 undefined 85 29.4 61 16.1 45 45 undefined N/A N/A N/A 0 0
3:54 pm 15:54 undefined 85 29.4 61 16.1 45 45 undefined N/A N/A N/A 0 0
4:54 pm 16:54 undefined 85 29.4 60 15.6 43 43 undefined N/A N/A N/A 0 0
5:54 pm 17:54 undefined 84 28.9 60 15.6 44 44 undefined N/A N/A N/A 0 0
6:54 pm 18:54 undefined 82 27.8 61 16.1 49 49 undefined N/A N/A N/A 0 0
7:54 pm 19:54 undefined 82 27.8 62 16.7 51 51 undefined N/A N/A N/A 0 0
8:54 pm 20:54 undefined 81 27.2 63 17.2 54 54 undefined N/A N/A N/A 0 0
9:54 pm 21:54 undefined 80 26.7 63 17.2 56 56 undefined N/A N/A N/A 0 0
10:54 pm 22:54 undefined 79 26.1 64 17.8 60 60 undefined N/A N/A N/A 0 0
11:54 pm 23:54 undefined 79 26.1 64 17.8 60 60 undefined N/A N/A N/A 0 0

Powered by AerisWeather